View Mont, North Carolina
Current Conditions -  °F | °C
As of 9:53 PM on Monday 26 Jan 2015 (Local Time) from KHKY Reporting Station
Clear Clear  
Wind Chill: 26°   Ceiling: Unl
Heat Index: 35°   Visibility: 10mi
Dew Point: 22°   Wind: 14mph
Humidity: 59%   Direction: 330°NNW
Pressure: 29.77"   Gusts: 20mph
Location:  35.7628°N, 81.3219°W
Report Text: KHKY 270253Z AUTO 33012G17KT 10SM CLR 02/M06 A2977 RMK AO2 SLP076 T00171056 51009
Loading
Personal Weather Stations






























Interactive Weather Map New forecast layout! Learn more

10-Day Weather Forecast

Advertisements
Track Severe Weather on mobile